This is the latest recevied weather packets stored in our database for station/object AJ1L. If no packets are shown the sender has not sent any weather packets the latest 10 day(s).
| Time | Temp. | Humidity | Pressure | Rain* | Wind** | Luminosity | Snow |
|---|---|---|---|---|---|---|---|
| 1788482217 | 20.56° C | 92% | 1011.6 hPa | 0 mm | - | - | - |
| 1788481216 | 20.56° C | 91% | 1011.6 hPa | 0 mm | - | - | - |
| 1788480216 | 21.11° C | 91% | 1011.5 hPa | 0 mm | - | - | - |
| 1788478216 | 21.67° C | 89% | 1011.7 hPa | 0 mm | - | - | - |
| 1788477216 | 22.22° C | 89% | 1011.1 hPa | 0 mm | - | - | - |
| 1788476217 | 22.22° C | 88% | 1011.2 hPa | 0 mm | - | - | - |
| 1788475216 | 22.78° C | 87% | 1011.4 hPa | 0 mm | - | - | - |
| 1788474216 | 22.78° C | 86% | 1012 hPa | 0 mm | - | - | - |
| 1788473216 | 22.78° C | 86% | 1011.9 hPa | 0 mm | - | - | - |
| 1788472216 | 22.78° C | 86% | 1011.6 hPa | 0 mm | - | - | - |
| 1788471216 | 22.78° C | 86% | 1011.5 hPa | 0 mm | - | - | - |
| 1788470216 | 22.78° C | 86% | 1011.5 hPa | 0 mm | - | - | - |
| 1788469216 | 22.78° C | 86% | 1011.6 hPa | 0 mm | - | - | - |
| 1788468216 | 22.78° C | 86% | 1011.7 hPa | 0 mm | - | - | - |
| 1788467216 | 23.33° C | 85% | 1012 hPa | 0 mm | - | - | - |
| 1788466216 | 23.33° C | 86% | 1012 hPa | 0 mm | - | - | - |
| 1788465216 | 23.33° C | 86% | 1012 hPa | 0 mm | - | - | - |
| 1788464218 | 22.78° C | 88% | 1012 hPa | 0 mm | - | - | - |
| 1788463216 | 22.22° C | 88% | 1012.2 hPa | 0 mm | - | - | - |
| 1788462216 | 22.78° C | 87% | 1012.4 hPa | 0 mm | - | - | - |
| 1788461218 | 22.78° C | 86% | 1012.6 hPa | 0 mm | - | - | - |
| 1788460216 | 23.33° C | 85% | 1012.8 hPa | 0 mm | - | - | - |
| 1788459216 | 25° C | 82% | 1012.8 hPa | 0 mm | - | - | - |
| 1788458216 | 25° C | 82% | 1012.7 hPa | 0 mm | - | - | - |
| 1788456216 | 25° C | 83% | 1012.9 hPa | 0 mm | - | - | - |
* Rain latest hour (hover to see other rain measurements)
** Current wind speed in m/s (hover to see current wind gust speed)